sensor_id;sensor_type;location;lat;lon;timestamp;noise_LAeq;noise_LA_min;noise_LA_max;noise_LA01;noise_LA95
71030;Laerm;63723;51.436;5.976;2023-01-06T00:00:09;51.49;48.45;55.05;;
71030;Laerm;63723;51.436;5.976;2023-01-06T00:00:19;49.81;48.61;51.47;;
71030;Laerm;63723;51.436;5.976;2023-01-06T00:00:30;50.39;48.61;53.35;;
71030;Laerm;63723;51.436;5.976;2023-01-06T00:00:40;50.17;48.65;52.49;;
71030;Laerm;63723;51.436;5.976;2023-01-06T00:00:50;50.36;49.19;51.73;;
71030;Laerm;63723;51.436;5.976;2023-01-06T00:01:02;51.26;49.13;53.31;;
71030;Laerm;63723;51.436;5.976;2023-01-06T00:01:16;50.34;48.93;52.06;;
71030;Laerm;63723;51.436;5.976;2023-01-06T00:01:27;50.09;48.68;51.58;;
71030;Laerm;63723;51.436;5.976;2023-01-06T00:01:37;50.73;49.01;52.99;;
71030;Laerm;63723;51.436;5.976;2023-01-06T00:01:47;51.55;49.90;53.24;;
71030;Laerm;63723;51.436;5.976;2023-01-06T00:01:58;51.41;49.82;54.19;;
71030;Laerm;63723;51.436;5.976;2023-01-06T00:02:10;50.76;49.51;53.30;;
71030;Laerm;63723;51.436;5.976;2023-01-06T00:02:20;50.58;48.69;56.38;;
71030;Laerm;63723;51.436;5.976;2023-01-06T00:02:31;49.86;48.26;54.61;;
71030;Laerm;63723;51.436;5.976;2023-01-06T00:02:41;49.59;48.31;51.96;;
71030;Laerm;63723;51.436;5.976;2023-01-06T00:02:51;50.14;48.62;52.44;;
71030;Laerm;63723;51.436;5.976;2023-01-06T00:03:02;49.85;48.34;51.63;;
71030;Laerm;63723;51.436;5.976;2023-01-06T00:03:12;50.60;48.99;55.54;;
71030;Laerm;63723;51.436;5.976;2023-01-06T00:03:22;50.22;48.72;55.33;;
71030;Laerm;63723;51.436;5.976;2023-01-06T00:03:32;49.36;48.49;50.39;;
71030;Laerm;63723;51.436;5.976;2023-01-06T00:03:43;49.71;48.27;52.13;;
71030;Laerm;63723;51.436;5.976;2023-01-06T00:03:55;50.58;48.51;57.87;;
71030;Laerm;63723;51.436;5.976;2023-01-06T00:04:08;49.63;48.47;57.12;;
71030;Laerm;63723;51.436;5.976;2023-01-06T00:04:18;50.15;48.66;53.36;;
71030;Laerm;63723;51.436;5.976;2023-01-06T00:04:28;50.69;48.52;53.76;;
71030;Laerm;63723;51.436;5.976;2023-01-06T00:04:38;49.58;48.03;51.49;;
71030;Laerm;63723;51.436;5.976;2023-01-06T00:04:49;49.97;48.45;53.89;;
71030;Laerm;63723;51.436;5.976;2023-01-06T00:04:59;49.47;48.31;50.57;;
71030;Laerm;63723;51.436;5.976;2023-01-06T00:05:09;49.42;48.18;53.17;;
71030;Laerm;63723;51.436;5.976;2023-01-06T00:05:20;49.38;48.39;51.36;;
71030;Laerm;63723;51.436;5.976;2023-01-06T00:05:30;49.49;48.45;53.38;;
71030;Laerm;63723;51.436;5.976;2023-01-06T00:05:41;50.50;48.76;51.96;;
71030;Laerm;63723;51.436;5.976;2023-01-06T00:05:55;50.62;49.13;51.84;;
71030;Laerm;63723;51.436;5.976;2023-01-06T00:06:06;51.03;49.25;52.64;;
71030;Laerm;63723;51.436;5.976;2023-01-06T00:06:17;50.69;49.02;55.24;;
71030;Laerm;63723;51.436;5.976;2023-01-06T00:06:28;50.77;49.55;52.26;;
71030;Laerm;63723;51.436;5.976;2023-01-06T00:06:39;50.53;49.27;51.95;;
71030;Laerm;63723;51.436;5.976;2023-01-06T00:06:50;50.78;49.49;53.29;;
71030;Laerm;63723;51.436;5.976;2023-01-06T00:07:00;50.65;49.25;51.79;;
71030;Laerm;63723;51.436;5.976;2023-01-06T00:07:10;51.21;49.10;53.34;;
71030;Laerm;63723;51.436;5.976;2023-01-06T00:07:20;52.12;50.03;54.02;;
71030;Laerm;63723;51.436;5.976;2023-01-06T00:07:31;51.54;49.10;53.46;;
71030;Laerm;63723;51.436;5.976;2023-01-06T00:07:41;51.88;49.51;53.94;;
71030;Laerm;63723;51.436;5.976;2023-01-06T00:07:53;51.48;49.05;54.75;;
71030;Laerm;63723;51.436;5.976;2023-01-06T00:08:03;51.43;48.94;53.56;;
71030;Laerm;63723;51.436;5.976;2023-01-06T00:08:13;51.23;49.26;53.23;;
71030;Laerm;63723;51.436;5.976;2023-01-06T00:08:24;50.41;48.29;52.00;;
71030;Laerm;63723;51.436;5.976;2023-01-06T00:08:34;49.88;48.52;52.68;;
71030;Laerm;63723;51.436;5.976;2023-01-06T00:08:44;49.74;48.40;51.06;;
71030;Laerm;63723;51.436;5.976;2023-01-06T00:08:58;49.81;48.62;51.77;;
71030;Laerm;63723;51.436;5.976;2023-01-06T00:09:09;50.36;48.42;56.74;;
71030;Laerm;63723;51.436;5.976;2023-01-06T00:09:19;50.25;48.72;51.58;;
71030;Laerm;63723;51.436;5.976;2023-01-06T00:09:30;51.83;48.98;55.71;;
71030;Laerm;63723;51.436;5.976;2023-01-06T00:09:42;52.55;50.10;54.16;;
71030;Laerm;63723;51.436;5.976;2023-01-06T00:09:53;52.72;50.03;54.24;;
71030;Laerm;63723;51.436;5.976;2023-01-06T00:10:03;51.99;49.20;54.18;;
71030;Laerm;63723;51.436;5.976;2023-01-06T00:10:14;51.01;48.95;54.89;;
71030;Laerm;63723;51.436;5.976;2023-01-06T00:10:24;51.86;48.99;54.95;;
71030;Laerm;63723;51.436;5.976;2023-01-06T00:10:35;50.49;48.70;52.85;;
71030;Laerm;63723;51.436;5.976;2023-01-06T00:10:45;50.18;48.78;53.49;;
71030;Laerm;63723;51.436;5.976;2023-01-06T00:10:56;51.09;48.97;54.61;;
71030;Laerm;63723;51.436;5.976;2023-01-06T00:11:12;56.31;49.29;60.78;;
71030;Laerm;63723;51.436;5.976;2023-01-06T00:11:23;55.80;49.97;61.66;;
71030;Laerm;63723;51.436;5.976;2023-01-06T00:11:34;50.80;49.25;54.58;;
71030;Laerm;63723;51.436;5.976;2023-01-06T00:11:45;50.85;49.30;63.61;;
71030;Laerm;63723;51.436;5.976;2023-01-06T00:11:55;57.32;49.26;66.00;;
71030;Laerm;63723;51.436;5.976;2023-01-06T00:12:06;53.24;49.13;66.42;;
71030;Laerm;63723;51.436;5.976;2023-01-06T00:12:16;51.06;49.14;57.14;;
71030;Laerm;63723;51.436;5.976;2023-01-06T00:12:27;50.61;48.85;54.88;;
71030;Laerm;63723;51.436;5.976;2023-01-06T00:12:37;50.50;49.27;57.24;;
71030;Laerm;63723;51.436;5.976;2023-01-06T00:12:47;51.17;49.39;60.77;;
71030;Laerm;63723;51.436;5.976;2023-01-06T00:12:58;50.88;48.76;63.46;;
71030;Laerm;63723;51.436;5.976;2023-01-06T00:13:08;51.07;48.54;57.59;;
71030;Laerm;63723;51.436;5.976;2023-01-06T00:13:18;53.38;48.74;57.09;;
71030;Laerm;63723;51.436;5.976;2023-01-06T00:13:29;53.36;48.87;57.07;;
71030;Laerm;63723;51.436;5.976;2023-01-06T00:13:39;54.88;49.45;58.89;;
71030;Laerm;63723;51.436;5.976;2023-01-06T00:13:49;54.14;50.64;58.46;;
71030;Laerm;63723;51.436;5.976;2023-01-06T00:14:00;53.79;49.25;60.19;;
71030;Laerm;63723;51.436;5.976;2023-01-06T00:14:10;53.06;49.45;56.71;;
71030;Laerm;63723;51.436;5.976;2023-01-06T00:14:20;53.42;49.23;57.49;;
71030;Laerm;63723;51.436;5.976;2023-01-06T00:14:30;53.14;49.43;56.39;;
71030;Laerm;63723;51.436;5.976;2023-01-06T00:14:41;54.16;49.33;59.58;;
71030;Laerm;63723;51.436;5.976;2023-01-06T00:14:53;52.37;48.41;61.58;;
71030;Laerm;63723;51.436;5.976;2023-01-06T00:15:04;50.39;48.83;52.40;;
71030;Laerm;63723;51.436;5.976;2023-01-06T00:15:15;50.23;48.44;54.40;;
71030;Laerm;63723;51.436;5.976;2023-01-06T00:15:26;50.38;48.48;54.02;;
71030;Laerm;63723;51.436;5.976;2023-01-06T00:15:36;50.30;48.61;54.30;;
71030;Laerm;63723;51.436;5.976;2023-01-06T00:15:46;50.69;48.85;55.34;;
71030;Laerm;63723;51.436;5.976;2023-01-06T00:15:57;50.60;48.72;57.00;;
71030;Laerm;63723;51.436;5.976;2023-01-06T00:16:08;51.95;48.64;57.52;;
71030;Laerm;63723;51.436;5.976;2023-01-06T00:16:19;50.58;48.61;55.04;;
71030;Laerm;63723;51.436;5.976;2023-01-06T00:16:30;50.42;48.86;52.97;;
71030;Laerm;63723;51.436;5.976;2023-01-06T00:16:40;50.47;48.49;53.25;;
71030;Laerm;63723;51.436;5.976;2023-01-06T00:16:50;50.66;48.65;54.38;;
71030;Laerm;63723;51.436;5.976;2023-01-06T00:17:01;51.79;49.63;56.06;;
71030;Laerm;63723;51.436;5.976;2023-01-06T00:17:11;51.86;49.54;56.24;;
71030;Laerm;63723;51.436;5.976;2023-01-06T00:17:21;51.44;48.42;54.53;;
71030;Laerm;63723;51.436;5.976;2023-01-06T00:17:32;51.59;49.05;54.73;;
71030;Laerm;63723;51.436;5.976;2023-01-06T00:17:42;52.07;49.75;55.41;;
71030;Laerm;63723;51.436;5.976;2023-01-06T00:17:53;51.67;49.47;55.77;;
71030;Laerm;63723;51.436;5.976;2023-01-06T00:18:03;51.16;48.72;53.65;;
71030;Laerm;63723;51.436;5.976;2023-01-06T00:18:13;50.82;48.78;54.04;;
71030;Laerm;63723;51.436;5.976;2023-01-06T00:18:23;50.54;48.55;53.17;;
71030;Laerm;63723;51.436;5.976;2023-01-06T00:18:34;50.46;48.46;59.24;;
71030;Laerm;63723;51.436;5.976;2023-01-06T00:18:44;50.81;48.90;56.54;;
71030;Laerm;63723;51.436;5.976;2023-01-06T00:18:55;50.59;48.67;57.32;;
71030;Laerm;63723;51.436;5.976;2023-01-06T00:19:06;50.49;48.57;57.57;;
71030;Laerm;63723;51.436;5.976;2023-01-06T00:19:16;50.76;48.76;53.29;;
71030;Laerm;63723;51.436;5.976;2023-01-06T00:19:26;51.06;48.60;56.71;;
71030;Laerm;63723;51.436;5.976;2023-01-06T00:19:37;50.75;48.89;57.60;;
71030;Laerm;63723;51.436;5.976;2023-01-06T00:19:47;51.08;48.82;55.39;;
71030;Laerm;63723;51.436;5.976;2023-01-06T00:19:57;51.17;48.68;56.65;;
71030;Laerm;63723;51.436;5.976;2023-01-06T00:20:08;51.23;49.01;54.80;;
71030;Laerm;63723;51.436;5.976;2023-01-06T00:20:18;50.77;48.65;57.76;;
71030;Laerm;63723;51.436;5.976;2023-01-06T00:20:28;50.65;49.04;52.97;;
71030;Laerm;63723;51.436;5.976;2023-01-06T00:20:39;50.39;48.67;55.98;;
71030;Laerm;63723;51.436;5.976;2023-01-06T00:20:49;50.97;49.06;53.41;;
71030;Laerm;63723;51.436;5.976;2023-01-06T00:20:59;50.65;48.65;55.18;;
71030;Laerm;63723;51.436;5.976;2023-01-06T00:21:10;49.69;48.39;50.78;;
71030;Laerm;63723;51.436;5.976;2023-01-06T00:21:21;50.32;48.98;54.25;;
71030;Laerm;63723;51.436;5.976;2023-01-06T00:21:31;50.76;48.81;60.46;;
71030;Laerm;63723;51.436;5.976;2023-01-06T00:21:42;50.45;48.62;53.50;;
71030;Laerm;63723;51.436;5.976;2023-01-06T00:21:52;49.74;48.56;54.85;;
71030;Laerm;63723;51.436;5.976;2023-01-06T00:22:02;49.81;48.56;53.75;;
71030;Laerm;63723;51.436;5.976;2023-01-06T00:22:14;50.04;48.49;57.73;;
71030;Laerm;63723;51.436;5.976;2023-01-06T00:22:25;49.94;48.57;57.59;;
71030;Laerm;63723;51.436;5.976;2023-01-06T00:22:35;51.13;49.14;55.36;;
71030;Laerm;63723;51.436;5.976;2023-01-06T00:22:45;50.47;48.77;58.23;;
71030;Laerm;63723;51.436;5.976;2023-01-06T00:22:55;50.05;48.34;52.01;;
71030;Laerm;63723;51.436;5.976;2023-01-06T00:23:06;49.90;48.43;58.34;;
71030;Laerm;63723;51.436;5.976;2023-01-06T00:23:16;50.33;48.46;58.01;;
71030;Laerm;63723;51.436;5.976;2023-01-06T00:23:26;52.23;48.76;57.68;;
71030;Laerm;63723;51.436;5.976;2023-01-06T00:23:37;50.48;48.83;53.95;;
71030;Laerm;63723;51.436;5.976;2023-01-06T00:23:47;49.93;48.40;58.40;;
71030;Laerm;63723;51.436;5.976;2023-01-06T00:23:57;49.81;48.50;51.69;;
71030;Laerm;63723;51.436;5.976;2023-01-06T00:24:08;49.84;48.49;57.48;;
71030;Laerm;63723;51.436;5.976;2023-01-06T00:24:18;49.56;48.35;51.27;;
71030;Laerm;63723;51.436;5.976;2023-01-06T00:24:28;49.53;48.30;51.49;;
71030;Laerm;63723;51.436;5.976;2023-01-06T00:24:39;50.15;48.38;57.53;;
71030;Laerm;63723;51.436;5.976;2023-01-06T00:24:49;50.00;48.89;51.01;;
71030;Laerm;63723;51.436;5.976;2023-01-06T00:24:59;50.48;48.91;51.65;;
71030;Laerm;63723;51.436;5.976;2023-01-06T00:25:10;51.85;50.29;54.37;;
71030;Laerm;63723;51.436;5.976;2023-01-06T00:25:20;52.02;50.81;53.45;;
71030;Laerm;63723;51.436;5.976;2023-01-06T00:25:32;52.51;51.33;53.98;;
71030;Laerm;63723;51.436;5.976;2023-01-06T00:25:50;50.81;49.04;53.40;;
71030;Laerm;63723;51.436;5.976;2023-01-06T00:26:00;50.24;48.97;52.31;;
71030;Laerm;63723;51.436;5.976;2023-01-06T00:26:11;51.23;48.75;53.44;;
71030;Laerm;63723;51.436;5.976;2023-01-06T00:26:21;51.42;50.03;55.45;;
71030;Laerm;63723;51.436;5.976;2023-01-06T00:26:32;51.33;49.77;52.71;;
71030;Laerm;63723;51.436;5.976;2023-01-06T00:26:42;51.47;49.85;55.23;;
71030;Laerm;63723;51.436;5.976;2023-01-06T00:26:52;51.73;49.74;53.76;;
71030;Laerm;63723;51.436;5.976;2023-01-06T00:27:03;52.05;50.01;56.12;;
71030;Laerm;63723;51.436;5.976;2023-01-06T00:27:13;51.67;49.85;54.97;;
71030;Laerm;63723;51.436;5.976;2023-01-06T00:27:23;51.06;49.15;52.65;;
71030;Laerm;63723;51.436;5.976;2023-01-06T00:27:33;50.89;49.08;53.83;;
71030;Laerm;63723;51.436;5.976;2023-01-06T00:27:44;50.07;49.14;51.13;;
71030;Laerm;63723;51.436;5.976;2023-01-06T00:27:54;50.11;48.79;53.68;;
71030;Laerm;63723;51.436;5.976;2023-01-06T00:28:04;50.48;49.07;54.37;;
71030;Laerm;63723;51.436;5.976;2023-01-06T00:28:15;50.79;49.56;53.58;;
71030;Laerm;63723;51.436;5.976;2023-01-06T00:28:25;50.36;49.00;51.89;;
71030;Laerm;63723;51.436;5.976;2023-01-06T00:28:36;50.74;49.36;52.18;;
71030;Laerm;63723;51.436;5.976;2023-01-06T00:28:46;50.62;49.03;52.79;;
71030;Laerm;63723;51.436;5.976;2023-01-06T00:28:56;50.22;49.01;52.39;;
71030;Laerm;63723;51.436;5.976;2023-01-06T00:29:10;50.30;49.15;53.62;;
71030;Laerm;63723;51.436;5.976;2023-01-06T00:29:20;50.19;48.96;53.34;;
71030;Laerm;63723;51.436;5.976;2023-01-06T00:29:30;49.95;48.56;53.29;;
71030;Laerm;63723;51.436;5.976;2023-01-06T00:29:40;50.35;49.09;53.23;;
71030;Laerm;63723;51.436;5.976;2023-01-06T00:29:51;50.41;48.91;53.33;;
71030;Laerm;63723;51.436;5.976;2023-01-06T00:30:01;50.44;48.53;54.75;;
71030;Laerm;63723;51.436;5.976;2023-01-06T00:30:11;50.86;48.50;54.70;;
71030;Laerm;63723;51.436;5.976;2023-01-06T00:30:22;50.10;48.37;53.70;;
71030;Laerm;63723;51.436;5.976;2023-01-06T00:30:32;50.09;48.44;55.81;;
71030;Laerm;63723;51.436;5.976;2023-01-06T00:30:42;49.79;48.44;54.62;;
71030;Laerm;63723;51.436;5.976;2023-01-06T00:30:52;49.86;48.33;53.23;;
71030;Laerm;63723;51.436;5.976;2023-01-06T00:31:07;50.05;48.41;53.90;;
71030;Laerm;63723;51.436;5.976;2023-01-06T00:31:17;49.87;48.59;54.60;;
71030;Laerm;63723;51.436;5.976;2023-01-06T00:31:27;49.61;48.55;51.52;;
71030;Laerm;63723;51.436;5.976;2023-01-06T00:31:37;49.61;48.46;51.30;;
71030;Laerm;63723;51.436;5.976;2023-01-06T00:31:48;49.63;48.52;52.34;;
71030;Laerm;63723;51.436;5.976;2023-01-06T00:31:59;49.70;48.38;51.24;;
71030;Laerm;63723;51.436;5.976;2023-01-06T00:32:09;49.71;48.56;54.86;;
71030;Laerm;63723;51.436;5.976;2023-01-06T00:32:19;49.78;48.59;51.09;;
71030;Laerm;63723;51.436;5.976;2023-01-06T00:32:30;49.69;48.44;52.33;;
71030;Laerm;63723;51.436;5.976;2023-01-06T00:32:40;49.94;48.63;55.75;;
71030;Laerm;63723;51.436;5.976;2023-01-06T00:32:50;49.87;47.97;51.36;;
71030;Laerm;63723;51.436;5.976;2023-01-06T00:33:00;49.89;48.83;51.52;;
71030;Laerm;63723;51.436;5.976;2023-01-06T00:33:11;50.18;48.87;52.67;;
71030;Laerm;63723;51.436;5.976;2023-01-06T00:33:21;50.23;48.62;54.74;;
71030;Laerm;63723;51.436;5.976;2023-01-06T00:33:32;50.25;48.82;54.98;;
71030;Laerm;63723;51.436;5.976;2023-01-06T00:33:42;51.43;50.09;52.97;;
71030;Laerm;63723;51.436;5.976;2023-01-06T00:33:54;50.33;49.05;52.64;;
71030;Laerm;63723;51.436;5.976;2023-01-06T00:34:04;49.89;48.83;51.17;;
71030;Laerm;63723;51.436;5.976;2023-01-06T00:34:14;49.84;48.40;52.86;;
71030;Laerm;63723;51.436;5.976;2023-01-06T00:34:25;49.98;48.84;54.90;;
71030;Laerm;63723;51.436;5.976;2023-01-06T00:34:35;50.01;48.83;54.41;;
71030;Laerm;63723;51.436;5.976;2023-01-06T00:34:45;50.46;49.00;54.88;;
71030;Laerm;63723;51.436;5.976;2023-01-06T00:34:56;50.69;49.54;51.80;;
71030;Laerm;63723;51.436;5.976;2023-01-06T00:35:06;50.87;49.49;56.78;;
71030;Laerm;63723;51.436;5.976;2023-01-06T00:35:16;50.80;49.74;53.52;;
71030;Laerm;63723;51.436;5.976;2023-01-06T00:35:26;50.60;49.40;52.59;;
71030;Laerm;63723;51.436;5.976;2023-01-06T00:35:37;50.48;49.39;51.62;;
71030;Laerm;63723;51.436;5.976;2023-01-06T00:35:47;50.89;49.30;52.09;;
71030;Laerm;63723;51.436;5.976;2023-01-06T00:35:58;50.78;49.52;53.27;;
71030;Laerm;63723;51.436;5.976;2023-01-06T00:36:09;51.77;50.13;53.39;;
71030;Laerm;63723;51.436;5.976;2023-01-06T00:36:20;51.18;49.74;52.63;;
71030;Laerm;63723;51.436;5.976;2023-01-06T00:36:30;51.50;50.10;52.93;;
71030;Laerm;63723;51.436;5.976;2023-01-06T00:36:41;51.25;49.76;53.01;;
71030;Laerm;63723;51.436;5.976;2023-01-06T00:36:51;51.01;49.74;52.02;;
71030;Laerm;63723;51.436;5.976;2023-01-06T00:37:01;50.99;49.55;53.57;;
71030;Laerm;63723;51.436;5.976;2023-01-06T00:37:13;51.01;49.45;53.13;;
71030;Laerm;63723;51.436;5.976;2023-01-06T00:37:23;50.88;49.65;53.06;;
71030;Laerm;63723;51.436;5.976;2023-01-06T00:37:33;50.77;49.53;53.96;;
71030;Laerm;63723;51.436;5.976;2023-01-06T00:37:44;50.73;49.24;51.88;;
71030;Laerm;63723;51.436;5.976;2023-01-06T00:37:54;50.66;49.57;51.92;;
71030;Laerm;63723;51.436;5.976;2023-01-06T00:38:04;50.65;49.61;52.11;;
71030;Laerm;63723;51.436;5.976;2023-01-06T00:38:14;50.67;49.31;52.18;;
71030;Laerm;63723;51.436;5.976;2023-01-06T00:38:25;50.53;49.33;51.92;;
71030;Laerm;63723;51.436;5.976;2023-01-06T00:38:35;50.66;49.47;52.32;;
71030;Laerm;63723;51.436;5.976;2023-01-06T00:38:46;50.53;49.46;51.91;;
71030;Laerm;63723;51.436;5.976;2023-01-06T00:38:57;50.62;49.30;52.31;;
71030;Laerm;63723;51.436;5.976;2023-01-06T00:39:07;50.60;49.42;51.80;;
71030;Laerm;63723;51.436;5.976;2023-01-06T00:39:17;50.45;49.00;51.46;;
71030;Laerm;63723;51.436;5.976;2023-01-06T00:39:28;50.48;48.92;52.40;;
71030;Laerm;63723;51.436;5.976;2023-01-06T00:39:38;50.38;49.31;51.45;;
71030;Laerm;63723;51.436;5.976;2023-01-06T00:39:48;50.53;49.28;51.67;;
71030;Laerm;63723;51.436;5.976;2023-01-06T00:39:58;50.54;49.26;51.59;;
71030;Laerm;63723;51.436;5.976;2023-01-06T00:40:09;50.48;49.32;52.06;;
71030;Laerm;63723;51.436;5.976;2023-01-06T00:40:19;50.35;49.32;51.85;;
71030;Laerm;63723;51.436;5.976;2023-01-06T00:40:29;50.08;48.79;51.13;;
71030;Laerm;63723;51.436;5.976;2023-01-06T00:40:39;50.13;49.09;51.28;;
71030;Laerm;63723;51.436;5.976;2023-01-06T00:40:50;50.27;48.96;51.93;;
71030;Laerm;63723;51.436;5.976;2023-01-06T00:41:02;50.14;48.96;51.30;;
71030;Laerm;63723;51.436;5.976;2023-01-06T00:41:12;50.12;49.05;51.15;;
71030;Laerm;63723;51.436;5.976;2023-01-06T00:41:41;50.11;48.90;52.06;;
71030;Laerm;63723;51.436;5.976;2023-01-06T00:42:10;50.04;48.46;52.82;;
71030;Laerm;63723;51.436;5.976;2023-01-06T00:42:21;49.78;48.69;50.80;;
71030;Laerm;63723;51.436;5.976;2023-01-06T00:42:31;49.71;48.69;50.82;;
71030;Laerm;63723;51.436;5.976;2023-01-06T00:42:42;49.75;48.51;50.61;;
71030;Laerm;63723;51.436;5.976;2023-01-06T00:42:52;49.94;48.65;52.69;;
71030;Laerm;63723;51.436;5.976;2023-01-06T00:43:02;49.87;48.94;51.33;;
71030;Laerm;63723;51.436;5.976;2023-01-06T00:43:13;50.38;48.48;52.25;;
71030;Laerm;63723;51.436;5.976;2023-01-06T00:43:23;50.55;49.18;51.59;;
71030;Laerm;63723;51.436;5.976;2023-01-06T00:43:33;50.38;49.37;51.70;;
71030;Laerm;63723;51.436;5.976;2023-01-06T00:43:43;50.38;49.28;51.45;;
71030;Laerm;63723;51.436;5.976;2023-01-06T00:43:54;50.33;49.01;51.83;;
71030;Laerm;63723;51.436;5.976;2023-01-06T00:44:05;50.65;49.57;52.16;;
71030;Laerm;63723;51.436;5.976;2023-01-06T00:44:16;50.36;49.28;51.23;;
71030;Laerm;63723;51.436;5.976;2023-01-06T00:44:26;50.50;49.11;51.82;;
71030;Laerm;63723;51.436;5.976;2023-01-06T00:44:37;50.40;49.15;51.33;;
71030;Laerm;63723;51.436;5.976;2023-01-06T00:44:47;50.35;48.96;51.97;;
71030;Laerm;63723;51.436;5.976;2023-01-06T00:44:57;50.61;49.45;52.05;;
71030;Laerm;63723;51.436;5.976;2023-01-06T00:45:08;50.31;49.14;51.94;;
71030;Laerm;63723;51.436;5.976;2023-01-06T00:45:18;50.63;49.27;52.49;;
71030;Laerm;63723;51.436;5.976;2023-01-06T00:45:28;50.51;49.36;51.72;;
71030;Laerm;63723;51.436;5.976;2023-01-06T00:45:39;50.58;49.56;51.64;;
71030;Laerm;63723;51.436;5.976;2023-01-06T00:45:49;50.53;49.49;51.70;;
71030;Laerm;63723;51.436;5.976;2023-01-06T00:46:00;50.69;49.55;55.60;;
71030;Laerm;63723;51.436;5.976;2023-01-06T00:46:10;50.45;49.31;51.56;;
71030;Laerm;63723;51.436;5.976;2023-01-06T00:46:20;50.32;49.14;51.55;;
71030;Laerm;63723;51.436;5.976;2023-01-06T00:46:31;50.70;49.18;52.28;;
71030;Laerm;63723;51.436;5.976;2023-01-06T00:46:43;50.80;49.57;52.01;;
71030;Laerm;63723;51.436;5.976;2023-01-06T00:46:53;50.83;49.72;51.96;;
71030;Laerm;63723;51.436;5.976;2023-01-06T00:47:04;50.47;49.15;51.88;;
71030;Laerm;63723;51.436;5.976;2023-01-06T00:47:15;50.45;49.30;52.71;;
71030;Laerm;63723;51.436;5.976;2023-01-06T00:47:25;50.52;49.30;51.60;;
71030;Laerm;63723;51.436;5.976;2023-01-06T00:47:35;50.28;49.34;51.68;;
71030;Laerm;63723;51.436;5.976;2023-01-06T00:47:46;50.31;48.93;51.46;;
71030;Laerm;63723;51.436;5.976;2023-01-06T00:47:56;51.83;49.20;55.18;;
71030;Laerm;63723;51.436;5.976;2023-01-06T00:48:06;50.28;49.05;51.47;;
71030;Laerm;63723;51.436;5.976;2023-01-06T00:48:17;50.32;48.83;51.44;;
71030;Laerm;63723;51.436;5.976;2023-01-06T00:48:27;50.44;48.97;51.54;;
71030;Laerm;63723;51.436;5.976;2023-01-06T00:48:37;50.46;49.20;51.88;;
71030;Laerm;63723;51.436;5.976;2023-01-06T00:48:47;50.51;49.08;52.16;;
71030;Laerm;63723;51.436;5.976;2023-01-06T00:48:58;50.51;49.23;51.87;;
71030;Laerm;63723;51.436;5.976;2023-01-06T00:49:09;51.01;49.49;52.26;;
71030;Laerm;63723;51.436;5.976;2023-01-06T00:49:19;50.99;49.47;52.17;;
71030;Laerm;63723;51.436;5.976;2023-01-06T00:49:29;50.73;49.56;51.96;;
71030;Laerm;63723;51.436;5.976;2023-01-06T00:49:39;50.47;49.08;51.57;;
71030;Laerm;63723;51.436;5.976;2023-01-06T00:49:50;50.57;49.49;51.82;;
71030;Laerm;63723;51.436;5.976;2023-01-06T00:50:00;50.58;49.57;52.12;;
71030;Laerm;63723;51.436;5.976;2023-01-06T00:50:11;50.59;49.35;52.34;;
71030;Laerm;63723;51.436;5.976;2023-01-06T00:50:22;50.83;49.55;54.05;;
71030;Laerm;63723;51.436;5.976;2023-01-06T00:50:32;50.60;49.15;52.22;;
71030;Laerm;63723;51.436;5.976;2023-01-06T00:50:42;50.13;48.94;51.38;;
71030;Laerm;63723;51.436;5.976;2023-01-06T00:50:58;50.73;48.73;52.88;;
71030;Laerm;63723;51.436;5.976;2023-01-06T00:51:08;50.90;49.16;53.04;;
71030;Laerm;63723;51.436;5.976;2023-01-06T00:51:18;50.36;48.54;52.35;;
71030;Laerm;63723;51.436;5.976;2023-01-06T00:51:29;49.94;48.43;52.11;;
71030;Laerm;63723;51.436;5.976;2023-01-06T00:51:39;50.44;48.56;52.00;;
71030;Laerm;63723;51.436;5.976;2023-01-06T00:51:50;50.88;48.92;52.54;;
71030;Laerm;63723;51.436;5.976;2023-01-06T00:52:00;49.56;48.27;53.46;;
71030;Laerm;63723;51.436;5.976;2023-01-06T00:52:10;50.16;48.40;52.48;;
71030;Laerm;63723;51.436;5.976;2023-01-06T00:52:21;50.19;48.66;52.38;;
71030;Laerm;63723;51.436;5.976;2023-01-06T00:52:31;49.98;48.86;53.22;;
71030;Laerm;63723;51.436;5.976;2023-01-06T00:52:41;49.88;48.69;52.27;;
71030;Laerm;63723;51.436;5.976;2023-01-06T00:52:51;49.85;48.79;51.72;;
71030;Laerm;63723;51.436;5.976;2023-01-06T00:53:02;50.04;48.83;51.16;;
71030;Laerm;63723;51.436;5.976;2023-01-06T00:53:13;50.31;49.30;51.48;;
71030;Laerm;63723;51.436;5.976;2023-01-06T00:53:23;49.61;48.43;51.22;;
71030;Laerm;63723;51.436;5.976;2023-01-06T00:53:33;49.97;48.54;51.37;;
71030;Laerm;63723;51.436;5.976;2023-01-06T00:53:44;49.96;48.46;51.39;;
71030;Laerm;63723;51.436;5.976;2023-01-06T00:53:54;50.03;48.46;52.16;;
71030;Laerm;63723;51.436;5.976;2023-01-06T00:54:08;49.93;48.76;51.25;;
71030;Laerm;63723;51.436;5.976;2023-01-06T00:54:19;50.04;48.82;51.45;;
71030;Laerm;63723;51.436;5.976;2023-01-06T00:54:29;50.21;48.52;51.43;;
71030;Laerm;63723;51.436;5.976;2023-01-06T00:54:39;50.07;48.66;51.27;;
71030;Laerm;63723;51.436;5.976;2023-01-06T00:54:50;50.26;48.82;51.66;;
71030;Laerm;63723;51.436;5.976;2023-01-06T00:55:00;50.53;48.92;52.29;;
71030;Laerm;63723;51.436;5.976;2023-01-06T00:55:10;50.68;48.89;52.36;;
71030;Laerm;63723;51.436;5.976;2023-01-06T00:55:21;51.00;49.56;53.53;;
71030;Laerm;63723;51.436;5.976;2023-01-06T00:55:31;51.37;50.07;52.66;;
71030;Laerm;63723;51.436;5.976;2023-01-06T00:55:41;51.62;50.26;52.74;;
71030;Laerm;63723;51.436;5.976;2023-01-06T00:55:57;52.45;50.79;54.25;;
71030;Laerm;63723;51.436;5.976;2023-01-06T00:56:08;52.68;50.39;55.23;;
71030;Laerm;63723;51.436;5.976;2023-01-06T00:56:18;52.08;50.37;54.04;;
71030;Laerm;63723;51.436;5.976;2023-01-06T00:56:28;51.21;49.38;52.90;;
71030;Laerm;63723;51.436;5.976;2023-01-06T00:56:39;50.82;49.42;52.32;;
71030;Laerm;63723;51.436;5.976;2023-01-06T00:56:51;51.40;49.75;52.85;;
71030;Laerm;63723;51.436;5.976;2023-01-06T00:57:02;51.90;50.43;53.64;;
71030;Laerm;63723;51.436;5.976;2023-01-06T00:57:14;51.53;49.82;52.95;;
71030;Laerm;63723;51.436;5.976;2023-01-06T00:57:24;51.22;49.53;54.64;;
71030;Laerm;63723;51.436;5.976;2023-01-06T00:57:34;51.10;49.59;52.55;;
71030;Laerm;63723;51.436;5.976;2023-01-06T00:57:45;51.01;49.78;52.26;;
71030;Laerm;63723;51.436;5.976;2023-01-06T00:57:56;50.71;49.57;51.93;;
71030;Laerm;63723;51.436;5.976;2023-01-06T00:58:06;50.80;49.49;55.03;;
71030;Laerm;63723;51.436;5.976;2023-01-06T00:58:16;50.83;49.76;52.56;;
71030;Laerm;63723;51.436;5.976;2023-01-06T00:58:30;51.02;49.59;52.21;;
71030;Laerm;63723;51.436;5.976;2023-01-06T00:58:40;51.22;49.76;55.45;;
71030;Laerm;63723;51.436;5.976;2023-01-06T00:58:51;51.61;49.77;54.24;;
71030;Laerm;63723;51.436;5.976;2023-01-06T00:59:01;51.22;49.93;53.16;;
71030;Laerm;63723;51.436;5.976;2023-01-06T00:59:12;51.25;50.09;52.78;;
71030;Laerm;63723;51.436;5.976;2023-01-06T00:59:24;50.57;48.51;54.70;;
71030;Laerm;63723;51.436;5.976;2023-01-06T00:59:34;49.89;48.64;51.18;;
71030;Laerm;63723;51.436;5.976;2023-01-06T00:59:44;50.31;49.03;51.51;;
71030;Laerm;63723;51.436;5.976;2023-01-06T00:59:55;50.31;49.09;51.53;;
71030;Laerm;63723;51.436;5.976;2023-01-06T01:00:06;49.94;48.40;51.22;;